Terminal Aerodrome Forecast
Issued by NWS Atlanta, GA

Home | Current Version | Previous Version | Text Only | Print | Product List | Glossary On
Versions: 1 2 3 4 5 6 7 8 9 10 11 12 13 14 15 16 17 18 19 20
000
FTUS42 KFFC 261745
TAFCSG
TAF
KCSG 261745Z 2618/2718 26010G16KT P6SM VCSH SCT045 OVC250
     FM262200 23005KT 6SM -SHRA BKN040
     FM270200 29005KT 5SM SHRA BR OVC025
     FM270600 26006KT 5SM SHRA BR OVC006
     FM271200 33010KT P6SM OVC015
     FM271600 33012KT P6SM SCT020=

USA.gov is the U.S. government's official web portal to all federal, state and local government web resources and services.